Time;durP1;ratioP1;P1;durP2;ratioP2;P2;SDS_P1;SDS_P2;PMS_P1;PMS_P2;Temp;Humidity;BMP_temperature;BMP_pressure;BME280_temperature;BME280_humidity;BME280_pressure;Samples;Min_cycle;Max_cycle;Signal;HPM_P1;HPM_P2
2023/05/20 00:00:56;;;;;;;4.93;3.70;;;;;;;;;;5012749;28;20429;-42
2023/05/20 00:03:22;;;;;;;3.53;3.23;;;;;;;;;;5012740;28;20418;-43
2023/05/20 00:05:48;;;;;;;4.20;3.37;;;;;;;;;;5012592;28;20472;-42
2023/05/20 00:08:14;;;;;;;3.60;3.30;;;;;;;;;;5012416;28;20515;-43
2023/05/20 00:10:40;;;;;;;4.00;3.30;;;;;;;;;;5012200;28;20475;-42
2023/05/20 00:13:07;;;;;;;3.70;3.30;;;;;;;;;;5012541;28;20909;-43
2023/05/20 00:15:33;;;;;;;3.50;3.20;;;;;;;;;;5011273;28;20438;-43
2023/05/20 00:18:02;;;;;;;4.10;3.20;;;;;;;;;;5012158;28;20784;-43
2023/05/20 00:20:28;;;;;;;5.90;3.33;;;;;;;;;;5012424;28;20444;-43
2023/05/20 00:22:54;;;;;;;5.30;3.47;;;;;;;;;;5012460;28;20483;-42
2023/05/20 00:25:20;;;;;;;3.50;3.20;;;;;;;;;;5012226;28;20876;-42
2023/05/20 00:27:46;;;;;;;5.80;3.67;;;;;;;;;;5011839;28;20782;-43
2023/05/20 00:30:13;;;;;;;5.73;3.73;;;;;;;;;;5012266;28;20497;-43
2023/05/20 00:32:39;;;;;;;3.33;3.03;;;;;;;;;;5016439;28;20859;-42
2023/05/20 00:35:05;;;;;;;3.70;3.33;;;;;;;;;;5010469;28;20439;-43
2023/05/20 00:37:31;;;;;;;5.80;3.90;;;;;;;;;;5011843;28;20774;-42
2023/05/20 00:39:57;;;;;;;4.50;4.10;;;;;;;;;;5011931;28;20431;-43
2023/05/20 00:42:27;;;;;;;4.63;3.70;;;;;;;;;;5015865;28;20738;-43
2023/05/20 00:44:53;;;;;;;4.10;3.80;;;;;;;;;;5011087;28;21006;-42
2023/05/20 00:47:20;;;;;;;5.97;3.50;;;;;;;;;;5010857;28;20472;-43
2023/05/20 00:49:46;;;;;;;3.90;3.60;;;;;;;;;;5011694;28;20424;-43
2023/05/20 00:52:13;;;;;;;3.87;3.57;;;;;;;;;;5012013;28;20438;-42
2023/05/20 00:54:40;;;;;;;4.67;4.27;;;;;;;;;;5011801;28;20416;-45
2023/05/20 00:57:07;;;;;;;6.60;4.20;;;;;;;;;;5011475;28;20906;-42
2023/05/20 00:59:34;;;;;;;6.07;3.80;;;;;;;;;;5011933;28;20420;-43
2023/05/20 01:02:01;;;;;;;4.13;3.60;;;;;;;;;;5011476;28;20891;-43
2023/05/20 01:04:27;;;;;;;4.93;3.93;;;;;;;;;;5011721;28;20455;-42
2023/05/20 01:06:54;;;;;;;4.50;3.47;;;;;;;;;;5010869;28;20433;-43
2023/05/20 01:09:20;;;;;;;4.50;4.10;;;;;;;;;;5011226;28;20408;-44
2023/05/20 01:12:01;;;;;;;7.73;4.13;;;;;;;;;;5011606;28;20575;-42
2023/05/20 01:14:29;;;;;;;7.90;4.30;;;;;;;;;;5010638;28;20453;-43
2023/05/20 01:16:57;;;;;;;3.83;3.53;;;;;;;;;;5011255;28;20431;-43
2023/05/20 01:19:37;;;;;;;4.70;4.00;;;;;;;;;;5010986;28;20435;-43
2023/05/20 01:22:05;;;;;;;4.30;3.70;;;;;;;;;;5004410;28;20417;-44
2023/05/20 01:24:31;;;;;;;12.23;5.23;;;;;;;;;;5015373;28;20462;-44
2023/05/20 01:26:57;;;;;;;5.40;4.13;;;;;;;;;;5015425;28;20428;-43
2023/05/20 01:29:25;;;;;;;4.33;3.70;;;;;;;;;;5015616;28;20900;-43
2023/05/20 01:31:53;;;;;;;6.33;3.80;;;;;;;;;;5019870;28;20419;-44
2023/05/20 01:34:19;;;;;;;3.80;3.50;;;;;;;;;;5015470;28;20471;-43
2023/05/20 01:36:46;;;;;;;3.70;3.37;;;;;;;;;;5014987;28;20440;-43
2023/05/20 01:39:12;;;;;;;3.57;3.27;;;;;;;;;;5015244;28;20510;-43
2023/05/20 01:41:38;;;;;;;6.97;3.63;;;;;;;;;;5015360;28;20420;-42
2023/05/20 01:44:05;;;;;;;5.43;3.60;;;;;;;;;;5015227;28;20510;-43
2023/05/20 01:46:34;;;;;;;4.30;3.93;;;;;;;;;;5013963;28;20431;-45
2023/05/20 01:49:00;;;;;;;4.13;3.73;;;;;;;;;;5015113;28;20422;-43
2023/05/20 01:51:26;;;;;;;9.10;4.10;;;;;;;;;;5015406;28;20449;-42
2023/05/20 01:53:52;;;;;;;5.80;3.70;;;;;;;;;;5015126;28;20415;-43
2023/05/20 01:56:18;;;;;;;5.30;3.60;;;;;;;;;;5014990;28;20431;-43
2023/05/20 01:58:44;;;;;;;5.60;4.30;;;;;;;;;;5015023;28;20454;-43
2023/05/20 02:01:10;;;;;;;6.80;5.30;;;;;;;;;;5015083;28;20427;-44
2023/05/20 02:03:36;;;;;;;5.53;4.00;;;;;;;;;;5014767;28;20419;-44
2023/05/20 02:06:02;;;;;;;5.63;3.20;;;;;;;;;;5014842;28;20451;-43
2023/05/20 02:08:28;;;;;;;3.80;3.50;;;;;;;;;;5014898;28;20424;-43
2023/05/20 02:10:54;;;;;;;7.40;4.00;;;;;;;;;;5015070;28;20419;-43
2023/05/20 02:13:20;;;;;;;4.60;4.20;;;;;;;;;;5014766;28;20462;-42
2023/05/20 02:15:46;;;;;;;4.23;3.67;;;;;;;;;;5013599;28;20440;-43
2023/05/20 02:18:12;;;;;;;7.40;4.30;;;;;;;;;;5014098;28;20451;-43
2023/05/20 02:20:39;;;;;;;4.13;3.73;;;;;;;;;;5014625;28;20487;-44
2023/05/20 02:23:06;;;;;;;5.00;3.90;;;;;;;;;;5014690;28;20411;-43
2023/05/20 02:25:32;;;;;;;6.47;3.87;;;;;;;;;;5014377;28;20459;-43
2023/05/20 02:27:58;;;;;;;4.60;3.73;;;;;;;;;;5011709;28;20789;-44
2023/05/20 02:30:24;;;;;;;7.23;3.63;;;;;;;;;;5018775;28;20411;-43
2023/05/20 02:32:50;;;;;;;4.10;3.30;;;;;;;;;;5021028;28;20407;-43
2023/05/20 02:35:16;;;;;;;4.47;4.07;;;;;;;;;;5014114;28;20422;-43
2023/05/20 02:37:43;;;;;;;4.23;3.67;;;;;;;;;;5013495;28;20521;-43
2023/05/20 02:40:09;;;;;;;12.20;3.80;;;;;;;;;;5014167;28;20431;-43
2023/05/20 02:42:36;;;;;;;4.23;3.40;;;;;;;;;;5014345;28;20490;-43
2023/05/20 02:45:02;;;;;;;4.10;3.80;;;;;;;;;;5017821;28;20496;-43
2023/05/20 02:47:28;;;;;;;3.93;3.63;;;;;;;;;;5012932;28;20449;-43
2023/05/20 02:49:54;;;;;;;5.83;4.67;;;;;;;;;;5014277;28;20413;-43
2023/05/20 02:52:20;;;;;;;5.47;4.70;;;;;;;;;;5014057;28;20403;-44
2023/05/20 02:54:46;;;;;;;3.90;3.50;;;;;;;;;;5014244;28;20497;-43
2023/05/20 02:57:12;;;;;;;5.60;4.23;;;;;;;;;;5013641;28;20835;-44
2023/05/20 02:59:38;;;;;;;4.33;3.90;;;;;;;;;;5013955;28;20404;-43
2023/05/20 03:02:04;;;;;;;5.60;4.30;;;;;;;;;;5013794;28;20409;-44
2023/05/20 03:04:30;;;;;;;4.07;3.63;;;;;;;;;;5013773;28;20496;-44
2023/05/20 03:06:56;;;;;;;5.77;4.20;;;;;;;;;;5013491;28;20869;-42
2023/05/20 03:09:23;;;;;;;4.30;3.90;;;;;;;;;;5013776;28;20410;-42
2023/05/20 03:11:50;;;;;;;5.00;4.47;;;;;;;;;;5013568;28;20473;-43
2023/05/20 03:14:15;;;;;;;3.83;3.53;;;;;;;;;;5013596;28;20415;-43
2023/05/20 03:16:41;;;;;;;4.77;4.37;;;;;;;;;;5012070;28;20459;-43
2023/05/20 03:19:07;;;;;;;7.07;4.67;;;;;;;;;;5012998;28;20435;-44
2023/05/20 03:21:33;;;;;;;4.40;4.00;;;;;;;;;;5014767;28;20407;-44
2023/05/20 03:23:59;;;;;;;7.30;4.53;;;;;;;;;;5013418;28;20438;-43
2023/05/20 03:26:26;;;;;;;5.27;4.47;;;;;;;;;;5013090;28;20411;-43
2023/05/20 03:28:52;;;;;;;6.27;4.17;;;;;;;;;;5013826;28;20403;-43
2023/05/20 03:31:18;;;;;;;6.60;4.40;;;;;;;;;;5013191;28;20418;-42
2023/05/20 03:33:45;;;;;;;4.20;3.80;;;;;;;;;;5013130;28;20916;-43
2023/05/20 03:36:11;;;;;;;4.37;3.90;;;;;;;;;;5012956;28;20777;-44
2023/05/20 03:38:36;;;;;;;6.60;4.43;;;;;;;;;;5013095;28;20529;-43
2023/05/20 03:41:02;;;;;;;3.83;3.50;;;;;;;;;;5013283;28;20415;-44
2023/05/20 03:43:28;;;;;;;6.70;4.53;;;;;;;;;;5012999;28;20435;-43
2023/05/20 03:45:55;;;;;;;3.87;3.50;;;;;;;;;;5011141;28;20803;-44
2023/05/20 03:48:21;;;;;;;4.83;4.43;;;;;;;;;;5012885;28;20438;-44
2023/05/20 03:50:47;;;;;;;3.83;3.40;;;;;;;;;;5012877;28;20408;-43
2023/05/20 03:53:13;;;;;;;4.47;4.07;;;;;;;;;;5012761;28;20502;-43
2023/05/20 03:55:39;;;;;;;4.40;3.70;;;;;;;;;;5012892;28;20418;-44
2023/05/20 03:58:05;;;;;;;4.10;3.70;;;;;;;;;;5012545;28;20431;-44
2023/05/20 04:00:31;;;;;;;5.40;4.50;;;;;;;;;;5012705;28;20443;-43
2023/05/20 04:02:58;;;;;;;6.00;5.20;;;;;;;;;;5012982;28;20412;-43
2023/05/20 04:05:24;;;;;;;4.50;4.10;;;;;;;;;;5012598;28;20459;-43
2023/05/20 04:07:50;;;;;;;6.73;4.17;;;;;;;;;;5012405;28;20443;-43
2023/05/20 04:10:18;;;;;;;5.70;4.00;;;;;;;;;;5012582;28;20886;-43
2023/05/20 04:12:44;;;;;;;4.90;4.03;;;;;;;;;;5012333;28;20476;-44
2023/05/20 04:15:10;;;;;;;4.97;3.80;;;;;;;;;;5012478;28;20777;-43
2023/05/20 04:17:37;;;;;;;6.43;4.70;;;;;;;;;;5011197;28;20446;-43
2023/05/20 04:20:05;;;;;;;7.00;3.90;;;;;;;;;;5011671;28;20450;-42
2023/05/20 04:22:31;;;;;;;4.97;3.77;;;;;;;;;;5013545;28;20812;-43
2023/05/20 04:24:58;;;;;;;4.60;4.20;;;;;;;;;;5012277;28;20452;-44
2023/05/20 04:27:24;;;;;;;4.37;4.00;;;;;;;;;;5011843;28;20426;-43
2023/05/20 04:29:51;;;;;;;7.43;4.50;;;;;;;;;;5012216;28;20408;-43
2023/05/20 04:32:18;;;;;;;5.00;4.47;;;;;;;;;;5012324;28;20411;-44
2023/05/20 04:34:44;;;;;;;4.07;3.67;;;;;;;;;;5012234;28;20446;-44
2023/05/20 04:37:11;;;;;;;4.50;4.07;;;;;;;;;;5011776;28;20427;-43
2023/05/20 04:39:38;;;;;;;4.73;3.67;;;;;;;;;;5012016;28;20457;-43
2023/05/20 04:42:04;;;;;;;7.30;4.30;;;;;;;;;;5012598;28;20538;-43
2023/05/20 04:44:30;;;;;;;4.63;4.10;;;;;;;;;;5012527;28;20498;-43
2023/05/20 04:46:59;;;;;;;4.63;4.23;;;;;;;;;;5010807;28;20482;-44
2023/05/20 04:49:25;;;;;;;4.47;4.07;;;;;;;;;;5011509;28;20438;-43
2023/05/20 04:51:54;;;;;;;4.70;4.40;;;;;;;;;;5011957;28;20427;-43
2023/05/20 04:54:20;;;;;;;4.07;3.67;;;;;;;;;;5011956;28;20929;-43
2023/05/20 04:56:46;;;;;;;5.27;3.90;;;;;;;;;;5010988;28;20440;-43
2023/05/20 04:59:12;;;;;;;4.40;3.80;;;;;;;;;;5011747;28;20794;-43
2023/05/20 05:01:38;;;;;;;5.60;4.20;;;;;;;;;;5011326;28;20412;-43
2023/05/20 05:04:04;;;;;;;5.77;4.73;;;;;;;;;;5011208;28;20419;-43
2023/05/20 05:06:30;;;;;;;5.13;4.40;;;;;;;;;;5009625;28;20411;-43
2023/05/20 05:08:56;;;;;;;5.03;4.53;;;;;;;;;;5003527;28;20375;-43
2023/05/20 05:11:22;;;;;;;5.90;5.37;;;;;;;;;;5011964;28;20408;-43
2023/05/20 05:13:48;;;;;;;6.87;5.27;;;;;;;;;;5011936;28;20466;-44
2023/05/20 05:16:14;;;;;;;7.67;5.47;;;;;;;;;;5010619;28;20455;-45
2023/05/20 05:18:40;;;;;;;5.37;4.63;;;;;;;;;;5011503;28;20419;-44
2023/05/20 05:21:06;;;;;;;9.27;4.80;;;;;;;;;;5011003;28;20431;-43
2023/05/20 05:23:32;;;;;;;5.13;4.63;;;;;;;;;;5012120;28;20435;-43
2023/05/20 05:25:58;;;;;;;7.67;4.87;;;;;;;;;;5011444;28;20490;-43
2023/05/20 05:28:24;;;;;;;6.40;5.03;;;;;;;;;;5011555;28;20427;-43
2023/05/20 05:30:51;;;;;;;6.40;4.70;;;;;;;;;;5011586;28;21001;-43
2023/05/20 05:33:17;;;;;;;5.37;4.73;;;;;;;;;;5015899;28;20412;-43
2023/05/20 05:35:43;;;;;;;5.33;4.67;;;;;;;;;;5011534;28;20416;-43
2023/05/20 05:38:09;;;;;;;5.20;4.80;;;;;;;;;;5011193;28;20453;-44
2023/05/20 05:40:36;;;;;;;5.60;4.90;;;;;;;;;;5011553;28;20451;-43
2023/05/20 05:43:02;;;;;;;7.77;5.40;;;;;;;;;;5011687;28;20904;-43
2023/05/20 05:45:27;;;;;;;7.73;5.83;;;;;;;;;;5010535;28;20499;-43
2023/05/20 05:47:54;;;;;;;5.63;5.13;;;;;;;;;;5009763;28;20419;-44
2023/05/20 05:50:20;;;;;;;9.47;5.30;;;;;;;;;;5011569;28;20411;-43
2023/05/20 05:52:46;;;;;;;6.07;5.07;;;;;;;;;;5011285;28;20412;-44
2023/05/20 05:55:12;;;;;;;5.30;3.93;;;;;;;;;;5011400;28;20415;-44
2023/05/20 05:57:38;;;;;;;4.40;4.00;;;;;;;;;;5011085;28;20437;-43
2023/05/20 06:00:04;;;;;;;4.73;4.20;;;;;;;;;;5011444;28;20424;-43
2023/05/20 06:02:34;;;;;;;4.37;4.07;;;;;;;;;;5011491;28;20415;-43
2023/05/20 06:05:01;;;;;;;4.67;4.13;;;;;;;;;;5003802;28;20458;-43
2023/05/20 06:07:27;;;;;;;4.63;4.10;;;;;;;;;;5010944;28;20434;-44
2023/05/20 06:09:53;;;;;;;5.13;3.77;;;;;;;;;;5013658;28;20403;-44
2023/05/20 06:12:18;;;;;;;5.67;3.87;;;;;;;;;;5015008;28;20425;-44
2023/05/20 06:14:44;;;;;;;5.20;4.70;;;;;;;;;;5014647;28;20421;-43
2023/05/20 06:17:10;;;;;;;5.20;4.10;;;;;;;;;;5013757;28;20449;-44
2023/05/20 06:19:37;;;;;;;6.63;4.60;;;;;;;;;;5014567;28;21017;-43
2023/05/20 06:22:03;;;;;;;5.90;4.10;;;;;;;;;;5014803;28;20497;-43
2023/05/20 06:24:30;;;;;;;6.47;5.00;;;;;;;;;;5014523;28;20465;-44
2023/05/20 06:26:56;;;;;;;5.30;4.77;;;;;;;;;;5006251;28;20764;-43
2023/05/20 06:29:22;;;;;;;4.87;4.37;;;;;;;;;;5011981;28;20432;-44
2023/05/20 06:31:48;;;;;;;4.53;4.13;;;;;;;;;;5017745;28;20441;-44
2023/05/20 06:34:14;;;;;;;4.70;4.30;;;;;;;;;;5015160;28;20418;-43
2023/05/20 06:36:40;;;;;;;5.57;4.70;;;;;;;;;;5015893;28;20426;-44
2023/05/20 06:39:11;;;;;;;4.77;4.23;;;;;;;;;;5014003;28;20481;-44
2023/05/20 06:41:37;;;;;;;5.23;4.73;;;;;;;;;;5014736;28;20408;-44
2023/05/20 06:44:03;;;;;;;5.43;4.60;;;;;;;;;;5014452;28;20411;-43
2023/05/20 06:46:29;;;;;;;9.03;4.60;;;;;;;;;;5013230;28;20445;-44
2023/05/20 06:48:55;;;;;;;5.93;4.30;;;;;;;;;;5014140;28;20418;-44
2023/05/20 06:51:21;;;;;;;4.80;4.40;;;;;;;;;;5014051;28;20426;-44
2023/05/20 06:53:47;;;;;;;4.70;4.30;;;;;;;;;;5014117;28;20388;-43
2023/05/20 06:56:13;;;;;;;4.30;4.00;;;;;;;;;;5013624;28;20469;-43
2023/05/20 06:58:39;;;;;;;6.07;4.97;;;;;;;;;;5014207;28;20750;-43
2023/05/20 07:01:05;;;;;;;6.10;5.60;;;;;;;;;;5013856;28;20458;-43
2023/05/20 07:03:31;;;;;;;5.03;4.60;;;;;;;;;;5013830;28;20407;-44
2023/05/20 07:05:57;;;;;;;5.07;4.67;;;;;;;;;;5013551;28;20883;-43
2023/05/20 07:08:23;;;;;;;5.30;4.50;;;;;;;;;;5013644;28;20437;-43
2023/05/20 07:10:49;;;;;;;5.00;4.60;;;;;;;;;;5013834;28;20415;-43
2023/05/20 07:13:15;;;;;;;6.13;5.30;;;;;;;;;;5013641;28;20377;-44
2023/05/20 07:15:41;;;;;;;6.47;5.27;;;;;;;;;;5012621;28;20489;-43
2023/05/20 07:18:07;;;;;;;6.70;5.30;;;;;;;;;;5012499;28;20918;-43
2023/05/20 07:20:33;;;;;;;7.40;5.07;;;;;;;;;;5012724;28;20741;-43
2023/05/20 07:23:00;;;;;;;5.80;5.20;;;;;;;;;;5013301;28;20385;-43
2023/05/20 07:25:26;;;;;;;5.83;5.33;;;;;;;;;;5016649;28;20566;-43
2023/05/20 07:27:52;;;;;;;5.70;4.70;;;;;;;;;;5009671;28;20446;-44
2023/05/20 07:30:18;;;;;;;5.23;4.80;;;;;;;;;;5015487;28;20390;-43
2023/05/20 07:32:44;;;;;;;5.07;4.67;;;;;;;;;;5015659;28;20381;-44
2023/05/20 07:35:10;;;;;;;6.23;5.63;;;;;;;;;;5013347;28;20415;-44
2023/05/20 07:37:36;;;;;;;5.57;5.17;;;;;;;;;;5012451;28;20916;-45
2023/05/20 07:40:02;;;;;;;7.43;6.37;;;;;;;;;;5013101;28;20423;-43
2023/05/20 07:42:28;;;;;;;6.33;4.80;;;;;;;;;;5013606;28;20426;-44
2023/05/20 07:44:54;;;;;;;6.13;5.20;;;;;;;;;;5012965;28;20548;-43
2023/05/20 07:47:20;;;;;;;5.77;5.27;;;;;;;;;;5012011;28;20568;-44
2023/05/20 07:49:46;;;;;;;6.87;5.50;;;;;;;;;;5012928;28;20465;-44
2023/05/20 07:52:12;;;;;;;6.17;5.57;;;;;;;;;;5012908;28;20808;-44
2023/05/20 07:54:38;;;;;;;7.90;5.00;;;;;;;;;;5011873;28;20408;-44
2023/05/20 07:57:04;;;;;;;6.00;5.40;;;;;;;;;;5012431;28;20925;-43
2023/05/20 07:59:30;;;;;;;7.30;5.37;;;;;;;;;;5012765;28;20913;-44
2023/05/20 08:01:56;;;;;;;6.80;5.90;;;;;;;;;;5012865;28;20435;-44
2023/05/20 08:04:22;;;;;;;5.90;5.33;;;;;;;;;;5012588;28;20899;-44
2023/05/20 08:06:49;;;;;;;6.57;5.97;;;;;;;;;;5012360;28;20440;-44
2023/05/20 08:09:15;;;;;;;7.33;5.53;;;;;;;;;;5012724;28;20391;-43
2023/05/20 08:11:41;;;;;;;8.53;6.83;;;;;;;;;;5012517;28;20396;-44
2023/05/20 08:14:07;;;;;;;6.50;5.60;;;;;;;;;;5011335;28;20879;-44
2023/05/20 08:16:33;;;;;;;6.90;6.20;;;;;;;;;;5011156;28;20426;-44
2023/05/20 08:18:59;;;;;;;11.30;7.03;;;;;;;;;;5012243;28;20373;-44
2023/05/20 08:21:25;;;;;;;7.93;6.17;;;;;;;;;;4992235;28;20400;-43
2023/05/20 08:23:51;;;;;;;8.00;6.00;;;;;;;;;;5008063;28;20413;-45
2023/05/20 08:26:17;;;;;;;6.43;5.77;;;;;;;;;;5000895;28;20473;-43
2023/05/20 08:28:43;;;;;;;6.63;6.03;;;;;;;;;;4999936;28;20413;-43
2023/05/20 08:31:09;;;;;;;9.20;6.37;;;;;;;;;;5010433;28;20408;-44
2023/05/20 08:33:35;;;;;;;10.63;6.40;;;;;;;;;;5014402;28;20394;-43
2023/05/20 08:36:01;;;;;;;7.60;6.50;;;;;;;;;;5012049;28;20803;-43
2023/05/20 08:38:27;;;;;;;8.80;5.50;;;;;;;;;;5015561;28;20407;-43
2023/05/20 08:40:54;;;;;;;6.63;5.93;;;;;;;;;;5012000;28;20592;-44
2023/05/20 08:43:21;;;;;;;8.43;6.57;;;;;;;;;;5004325;28;20494;-43
2023/05/20 08:45:47;;;;;;;6.30;5.80;;;;;;;;;;5012170;28;20475;-43
2023/05/20 08:48:13;;;;;;;6.67;6.07;;;;;;;;;;5011829;28;20418;-43
2023/05/20 08:50:39;;;;;;;7.50;6.20;;;;;;;;;;5024630;28;20443;-45
2023/05/20 08:53:07;;;;;;;9.17;5.83;;;;;;;;;;5005382;28;20424;-44
2023/05/20 08:55:37;;;;;;;7.93;6.93;;;;;;;;;;5012003;28;20430;-43
2023/05/20 08:58:04;;;;;;;7.87;6.80;;;;;;;;;;5011677;28;20455;-43
2023/05/20 09:00:30;;;;;;;6.43;5.83;;;;;;;;;;5011963;28;20418;-43
2023/05/20 09:02:57;;;;;;;6.83;6.17;;;;;;;;;;5010665;28;20418;-44
2023/05/20 09:05:23;;;;;;;6.63;5.93;;;;;;;;;;5010941;28;20554;-45
2023/05/20 09:07:48;;;;;;;6.77;6.07;;;;;;;;;;5011186;28;20539;-45
2023/05/20 09:10:15;;;;;;;7.00;5.97;;;;;;;;;;5011383;28;20373;-44
2023/05/20 09:12:41;;;;;;;8.27;6.80;;;;;;;;;;5009896;28;20942;-46
2023/05/20 09:15:07;;;;;;;10.63;6.63;;;;;;;;;;5011207;28;20437;-44
2023/05/20 09:17:37;;;;;;;6.60;5.87;;;;;;;;;;5011374;28;20412;-45
2023/05/20 09:20:07;;;;;;;7.43;6.30;;;;;;;;;;5011803;28;20415;-44
2023/05/20 09:22:34;;;;;;;12.47;6.90;;;;;;;;;;5011704;28;20733;-44
2023/05/20 09:25:00;;;;;;;8.40;6.13;;;;;;;;;;5011792;28;20466;-44
2023/05/20 09:27:26;;;;;;;8.10;6.20;;;;;;;;;;5018400;28;20396;-44
2023/05/20 09:29:52;;;;;;;8.17;6.63;;;;;;;;;;5011719;28;20402;-44
2023/05/20 09:32:22;;;;;;;7.17;6.47;;;;;;;;;;5015648;28;20422;-44
2023/05/20 09:34:48;;;;;;;6.73;6.03;;;;;;;;;;5012622;28;20419;-44
2023/05/20 09:37:18;;;;;;;7.67;6.77;;;;;;;;;;5011202;28;20445;-44
2023/05/20 09:40:05;;;;;;;9.43;6.93;;;;;;;;;;5011540;28;20462;-43
2023/05/20 09:42:34;;;;;;;15.27;7.90;;;;;;;;;;5009544;28;20489;-46
2023/05/20 09:45:03;;;;;;;7.60;6.67;;;;;;;;;;5013575;28;20439;-44
2023/05/20 09:47:30;;;;;;;7.37;6.33;;;;;;;;;;5014921;28;20415;-44
2023/05/20 09:49:56;;;;;;;8.53;7.07;;;;;;;;;;5015414;28;20504;-44
2023/05/20 09:52:22;;;;;;;8.20;7.03;;;;;;;;;;5015326;28;20507;-45
2023/05/20 09:54:49;;;;;;;9.70;7.73;;;;;;;;;;5015218;28;20901;-45
2023/05/20 09:57:15;;;;;;;9.00;7.63;;;;;;;;;;5014837;28;20516;-44
2023/05/20 09:59:41;;;;;;;8.63;7.00;;;;;;;;;;5015017;28;20522;-45
2023/05/20 10:02:08;;;;;;;8.67;7.50;;;;;;;;;;5015024;28;20428;-44
2023/05/20 10:04:35;;;;;;;7.70;6.80;;;;;;;;;;5014980;28;20429;-44
2023/05/20 10:07:29;;;;;;;7.93;7.13;;;;;;;;;;5014674;28;20557;-44
2023/05/20 10:10:01;;;;;;;11.80;6.60;;;;;;;;;;5014952;28;20435;-44
2023/05/20 10:12:38;;;;;;;9.03;7.27;;;;;;;;;;5013898;28;20399;-44
2023/05/20 10:15:23;;;;;;;10.30;6.40;;;;;;;;;;5008383;28;20416;-44
2023/05/20 10:18:09;;;;;;;10.87;6.70;;;;;;;;;;5014555;28;20430;-44
2023/05/20 10:20:48;;;;;;;8.23;7.40;;;;;;;;;;5014726;28;20399;-45
2023/05/20 10:23:21;;;;;;;11.70;7.23;;;;;;;;;;5015161;28;20450;-44
2023/05/20 10:25:52;;;;;;;8.60;7.57;;;;;;;;;;5015785;28;20490;-44
2023/05/20 10:28:24;;;;;;;9.33;7.40;;;;;;;;;;5014867;28;20432;-44
2023/05/20 10:30:50;;;;;;;8.63;6.80;;;;;;;;;;5014578;28;20470;-44
2023/05/20 10:33:18;;;;;;;9.93;7.60;;;;;;;;;;5014505;28;20420;-44
2023/05/20 10:35:50;;;;;;;11.73;7.87;;;;;;;;;;5014433;28;20423;-44
2023/05/20 10:38:16;;;;;;;9.30;7.60;;;;;;;;;;5014195;28;20435;-44
2023/05/20 10:40:42;;;;;;;12.60;8.53;;;;;;;;;;5013809;28;20872;-45
2023/05/20 10:43:27;;;;;;;10.43;8.50;;;;;;;;;;5014393;28;20415;-45
2023/05/20 10:45:54;;;;;;;8.73;7.23;;;;;;;;;;5013179;28;20518;-45
2023/05/20 10:48:41;;;;;;;8.57;7.13;;;;;;;;;;5014323;28;20451;-45
2023/05/20 10:51:13;;;;;;;7.90;7.10;;;;;;;;;;5014437;28;20393;-45
2023/05/20 10:53:46;;;;;;;7.67;6.90;;;;;;;;;;5014111;28;20459;-45
2023/05/20 10:56:38;;;;;;;7.43;6.77;;;;;;;;;;5013732;28;20420;-44
2023/05/20 10:59:04;;;;;;;7.30;6.60;;;;;;;;;;5010555;28;20428;-45
2023/05/20 11:01:30;;;;;;;7.57;6.87;;;;;;;;;;5013894;28;20445;-45
2023/05/20 11:03:57;;;;;;;7.50;6.80;;;;;;;;;;5014070;28;20413;-45
2023/05/20 11:06:27;;;;;;;8.97;7.43;;;;;;;;;;5013538;28;20466;-45
2023/05/20 11:08:53;;;;;;;9.10;7.00;;;;;;;;;;5014285;28;20443;-45
2023/05/20 11:11:20;;;;;;;9.27;7.27;;;;;;;;;;5012957;28;20436;-45
2023/05/20 11:13:50;;;;;;;8.40;7.03;;;;;;;;;;5014075;28;20446;-45
2023/05/20 11:16:16;;;;;;;14.67;7.23;;;;;;;;;;5013577;28;20472;-45
2023/05/20 11:18:42;;;;;;;9.70;7.20;;;;;;;;;;5013655;28;20905;-45
2023/05/20 11:21:08;;;;;;;7.73;7.03;;;;;;;;;;5013523;28;20417;-45
2023/05/20 11:23:34;;;;;;;15.50;6.90;;;;;;;;;;5013471;28;20427;-45
2023/05/20 11:26:01;;;;;;;7.70;6.83;;;;;;;;;;5016193;28;20507;-45
2023/05/20 11:28:27;;;;;;;8.80;7.50;;;;;;;;;;5017411;28;20445;-45
2023/05/20 11:30:53;;;;;;;8.27;7.47;;;;;;;;;;5013435;28;20411;-45
2023/05/20 11:33:19;;;;;;;8.47;7.57;;;;;;;;;;5013357;28;20403;-45
2023/05/20 11:35:46;;;;;;;10.10;6.47;;;;;;;;;;5013227;28;20899;-45
2023/05/20 11:38:12;;;;;;;9.93;6.90;;;;;;;;;;5013080;28;20518;-45
2023/05/20 11:40:42;;;;;;;7.63;6.33;;;;;;;;;;5011639;28;20546;-45
2023/05/20 11:43:10;;;;;;;8.27;7.20;;;;;;;;;;5013302;28;20935;-45
2023/05/20 11:45:40;;;;;;;8.00;6.47;;;;;;;;;;5013010;28;20516;-45
2023/05/20 11:48:06;;;;;;;8.03;7.23;;;;;;;;;;5013268;28;20446;-45
2023/05/20 11:50:38;;;;;;;7.13;6.53;;;;;;;;;;5013018;28;20403;-45
2023/05/20 11:53:04;;;;;;;6.90;6.30;;;;;;;;;;5013175;28;20435;-45
2023/05/20 11:55:32;;;;;;;6.50;5.77;;;;;;;;;;5013066;28;20407;-45
2023/05/20 11:57:58;;;;;;;6.60;6.00;;;;;;;;;;4996899;28;20438;-45
2023/05/20 12:00:24;;;;;;;6.97;6.27;;;;;;;;;;5012968;28;20415;-45
2023/05/20 12:02:50;;;;;;;7.60;5.47;;;;;;;;;;5012678;28;20438;-45
2023/05/20 12:05:17;;;;;;;5.83;5.23;;;;;;;;;;5013144;28;20455;-45
2023/05/20 12:07:43;;;;;;;5.97;5.37;;;;;;;;;;5011950;28;20435;-45
2023/05/20 12:10:09;;;;;;;5.43;4.93;;;;;;;;;;5011107;28;20430;-45
2023/05/20 12:12:36;;;;;;;4.97;4.57;;;;;;;;;;5012707;28;20485;-45
2023/05/20 12:15:02;;;;;;;5.40;4.37;;;;;;;;;;5012781;28;20495;-45
2023/05/20 12:17:28;;;;;;;6.17;4.27;;;;;;;;;;5012187;28;20430;-45
2023/05/20 12:19:54;;;;;;;5.20;4.13;;;;;;;;;;5012654;28;20573;-44
2023/05/20 12:22:20;;;;;;;5.17;4.67;;;;;;;;;;5012589;28;20419;-45
2023/05/20 12:24:46;;;;;;;4.57;3.83;;;;;;;;;;5012544;28;20471;-44
2023/05/20 12:27:12;;;;;;;5.73;4.80;;;;;;;;;;5018243;28;21001;-44
2023/05/20 12:29:38;;;;;;;6.00;5.17;;;;;;;;;;5012496;28;20915;-45
2023/05/20 12:32:04;;;;;;;5.17;4.67;;;;;;;;;;5012221;28;20406;-45
2023/05/20 12:34:31;;;;;;;6.00;4.37;;;;;;;;;;5012693;28;20510;-45
2023/05/20 12:36:57;;;;;;;7.73;5.00;;;;;;;;;;5012081;28;20435;-44
2023/05/20 12:39:23;;;;;;;4.97;4.30;;;;;;;;;;5010914;28;20450;-45
2023/05/20 12:41:49;;;;;;;4.60;4.23;;;;;;;;;;5012216;28;20408;-45
2023/05/20 12:44:15;;;;;;;5.83;5.23;;;;;;;;;;5012260;28;20776;-44
2023/05/20 12:46:41;;;;;;;4.83;4.33;;;;;;;;;;5011971;28;20828;-44
2023/05/20 12:49:07;;;;;;;5.73;5.10;;;;;;;;;;5012167;28;20900;-44
2023/05/20 12:51:33;;;;;;;6.80;5.33;;;;;;;;;;5012286;28;20406;-45
2023/05/20 12:53:59;;;;;;;7.20;5.60;;;;;;;;;;5012444;28;20426;-45
2023/05/20 12:56:26;;;;;;;5.40;4.90;;;;;;;;;;5011758;28;20423;-45
2023/05/20 12:58:52;;;;;;;7.07;4.60;;;;;;;;;;5011968;28;20415;-45
2023/05/20 13:01:18;;;;;;;11.27;5.60;;;;;;;;;;5012383;28;20423;-45
2023/05/20 13:03:44;;;;;;;5.60;5.10;;;;;;;;;;5011874;28;20477;-45
2023/05/20 13:06:09;;;;;;;5.90;4.90;;;;;;;;;;5011600;28;20459;-45
2023/05/20 13:08:35;;;;;;;6.07;5.13;;;;;;;;;;5011009;28;20456;-45
2023/05/20 13:11:01;;;;;;;8.50;5.67;;;;;;;;;;5011981;28;20769;-44
2023/05/20 13:13:27;;;;;;;5.20;4.70;;;;;;;;;;5011802;28;20418;-44
2023/05/20 13:15:54;;;;;;;5.83;5.33;;;;;;;;;;5011936;28;20418;-44
2023/05/20 13:18:20;;;;;;;5.30;4.70;;;;;;;;;;5011992;28;20542;-45
2023/05/20 13:20:46;;;;;;;5.67;5.17;;;;;;;;;;5016092;28;20418;-44
2023/05/20 13:23:12;;;;;;;5.50;5.00;;;;;;;;;;5015823;28;20758;-44
2023/05/20 13:25:38;;;;;;;5.20;4.80;;;;;;;;;;5015777;28;20552;-44
2023/05/20 13:28:04;;;;;;;5.27;4.77;;;;;;;;;;5022503;28;20418;-44
2023/05/20 13:30:31;;;;;;;5.43;4.93;;;;;;;;;;5015718;28;20411;-45
2023/05/20 13:32:57;;;;;;;5.40;4.90;;;;;;;;;;5015624;28;20415;-45
2023/05/20 13:35:23;;;;;;;5.73;5.17;;;;;;;;;;5015671;28;20447;-44
2023/05/20 13:37:49;;;;;;;4.97;4.57;;;;;;;;;;5014279;28;20451;-44
2023/05/20 13:40:15;;;;;;;6.70;5.40;;;;;;;;;;5015418;28;20517;-45
2023/05/20 13:42:41;;;;;;;5.70;5.00;;;;;;;;;;5015392;28;20507;-45
2023/05/20 13:45:07;;;;;;;4.63;4.23;;;;;;;;;;5015601;28;20942;-44
2023/05/20 13:47:33;;;;;;;5.10;4.60;;;;;;;;;;5015297;28;20426;-45
2023/05/20 13:49:59;;;;;;;5.33;4.93;;;;;;;;;;5015346;28;20505;-45
2023/05/20 13:52:25;;;;;;;5.53;5.03;;;;;;;;;;5015221;28;20415;-45
2023/05/20 13:54:51;;;;;;;11.67;4.67;;;;;;;;;;5015172;28;20452;-44
2023/05/20 13:57:17;;;;;;;5.47;5.07;;;;;;;;;;5015406;28;20435;-45
2023/05/20 13:59:43;;;;;;;4.87;4.37;;;;;;;;;;5015088;28;20419;-45
2023/05/20 14:02:09;;;;;;;8.63;5.20;;;;;;;;;;5015206;28;20459;-45
2023/05/20 14:04:38;;;;;;;5.63;5.07;;;;;;;;;;5015001;28;20411;-45
2023/05/20 14:07:04;;;;;;;4.80;4.40;;;;;;;;;;5014084;28;20818;-45
2023/05/20 14:09:30;;;;;;;5.30;4.80;;;;;;;;;;5014391;28;20429;-44
2023/05/20 14:11:56;;;;;;;4.80;4.50;;;;;;;;;;5015291;28;20413;-44
2023/05/20 14:14:22;;;;;;;5.03;4.53;;;;;;;;;;5014902;28;20830;-44
2023/05/20 14:16:48;;;;;;;5.73;5.23;;;;;;;;;;5014638;28;20435;-44
2023/05/20 14:19:14;;;;;;;4.63;4.23;;;;;;;;;;5014979;28;20422;-45
2023/05/20 14:21:40;;;;;;;5.13;4.40;;;;;;;;;;5014709;28;20893;-45
2023/05/20 14:24:06;;;;;;;5.03;4.60;;;;;;;;;;5014748;28;20407;-45
2023/05/20 14:26:33;;;;;;;7.73;4.50;;;;;;;;;;5021192;28;20458;-45
2023/05/20 14:28:59;;;;;;;6.40;4.70;;;;;;;;;;5014608;28;20896;-45
2023/05/20 14:31:25;;;;;;;5.03;4.63;;;;;;;;;;5014199;28;20437;-45
2023/05/20 14:33:51;;;;;;;4.97;4.57;;;;;;;;;;5014326;28;20423;-45
2023/05/20 14:36:17;;;;;;;5.57;5.07;;;;;;;;;;5013227;28;20804;-45
2023/05/20 14:38:43;;;;;;;5.83;5.07;;;;;;;;;;5013603;28;20419;-45
2023/05/20 14:41:09;;;;;;;5.47;4.97;;;;;;;;;;5014298;28;20883;-45